createdAt,value
2018-06-28T00:01:04.021Z,4.70
2018-06-28T00:03:32.280Z,5.23
2018-06-28T00:06:01.443Z,3.63
2018-06-28T00:08:30.141Z,4.53
2018-06-28T00:10:59.076Z,5.23
2018-06-28T00:13:27.817Z,4.40
2018-06-28T00:15:56.317Z,4.83
2018-06-28T00:18:25.363Z,3.70
2018-06-28T00:20:53.945Z,4.37
2018-06-28T00:23:22.673Z,3.50
2018-06-28T00:25:51.064Z,3.50
2018-06-28T00:28:19.632Z,5.00
2018-06-28T00:30:48.396Z,4.97
2018-06-28T00:33:17.025Z,3.37
2018-06-28T00:35:45.468Z,4.17
2018-06-28T00:38:14.360Z,3.93
2018-06-28T00:40:42.762Z,5.13
2018-06-28T00:43:11.419Z,5.83
2018-06-28T00:45:39.828Z,7.87
2018-06-28T00:48:08.277Z,6.40
2018-06-28T00:50:36.690Z,6.17
2018-06-28T00:53:05.584Z,7.47
2018-06-28T00:55:34.060Z,4.87
2018-06-28T00:58:02.617Z,7.17
2018-06-28T01:00:31.005Z,4.07
2018-06-28T01:02:59.408Z,4.47
2018-06-28T01:05:27.871Z,4.70
2018-06-28T01:07:56.533Z,4.73
2018-06-28T01:10:25.162Z,3.57
2018-06-28T01:12:53.528Z,5.67
2018-06-28T01:15:22.014Z,4.93
2018-06-28T01:17:51.205Z,3.33
2018-06-28T01:20:19.670Z,4.13
2018-06-28T01:22:48.266Z,4.37
2018-06-28T01:25:16.756Z,4.50
2018-06-28T01:27:45.948Z,4.00
2018-06-28T01:30:14.316Z,4.43
2018-06-28T01:32:43.069Z,4.10
2018-06-28T01:35:11.956Z,5.37
2018-06-28T01:37:40.377Z,3.07
2018-06-28T01:40:08.853Z,3.70
2018-06-28T01:42:48.605Z,4.77
2018-06-28T01:45:17.334Z,3.23
2018-06-28T01:47:46.000Z,3.50
2018-06-28T01:50:15.021Z,3.53
2018-06-28T01:52:43.674Z,3.20
2018-06-28T01:55:12.260Z,3.10
2018-06-28T01:57:40.753Z,4.33
2018-06-28T02:00:09.333Z,3.93
2018-06-28T02:02:38.320Z,4.33
2018-06-28T02:05:07.023Z,5.23
2018-06-28T02:07:35.396Z,4.07
2018-06-28T02:10:03.868Z,3.33
2018-06-28T02:12:32.557Z,3.70
2018-06-28T02:15:01.117Z,4.07
2018-06-28T02:17:30.109Z,5.47
2018-06-28T02:19:58.814Z,4.07
2018-06-28T02:22:27.465Z,3.93
2018-06-28T02:24:55.985Z,2.90
2018-06-28T02:27:24.874Z,3.67
2018-06-28T02:29:53.360Z,3.20
2018-06-28T02:32:22.032Z,3.27
2018-06-28T02:34:50.880Z,3.83
2018-06-28T02:37:19.426Z,3.03
2018-06-28T02:39:48.033Z,3.43
2018-06-28T02:42:16.710Z,3.00
2018-06-28T02:44:45.074Z,2.90
2018-06-28T02:47:14.073Z,3.30
2018-06-28T02:49:43.349Z,3.10
2018-06-28T02:52:12.084Z,3.40
2018-06-28T02:54:40.758Z,3.97
2018-06-28T02:57:09.169Z,3.20
2018-06-28T02:59:37.808Z,3.93
2018-06-28T03:02:06.187Z,4.07
2018-06-28T03:04:34.733Z,3.00
2018-06-28T03:07:03.849Z,3.53
2018-06-28T03:09:32.964Z,2.87
2018-06-28T03:12:01.649Z,3.27
2018-06-28T03:14:30.549Z,3.13
2018-06-28T03:16:59.523Z,4.03
2018-06-28T03:19:28.097Z,3.20
2018-06-28T03:21:56.581Z,3.10
2018-06-28T03:24:25.810Z,3.50
2018-06-28T03:26:54.589Z,2.80
2018-06-28T03:29:23.524Z,2.93
2018-06-28T03:31:52.105Z,2.83
2018-06-28T03:34:20.956Z,2.77
2018-06-28T03:36:49.936Z,3.00
2018-06-28T03:39:18.418Z,3.40
2018-06-28T03:41:47.332Z,2.93
2018-06-28T03:44:16.092Z,3.60
2018-06-28T03:46:44.741Z,2.80
2018-06-28T03:49:13.689Z,2.67
2018-06-28T03:51:42.181Z,3.50
2018-06-28T03:54:11.068Z,3.27
2018-06-28T03:56:39.573Z,2.97
2018-06-28T03:59:08.364Z,2.70
2018-06-28T04:01:36.844Z,2.90
2018-06-28T04:04:05.200Z,2.93
2018-06-28T04:06:34.156Z,4.47
2018-06-28T04:09:02.657Z,2.87
2018-06-28T04:11:31.592Z,3.00
2018-06-28T04:14:00.533Z,2.87
2018-06-28T04:16:29.225Z,3.30
2018-06-28T04:18:57.904Z,3.20
2018-06-28T04:21:26.645Z,3.27
2018-06-28T04:23:55.588Z,3.07
2018-06-28T04:26:24.323Z,3.33
2018-06-28T04:28:53.272Z,3.30
2018-06-28T04:31:21.989Z,3.10
2018-06-28T04:33:50.437Z,2.83
2018-06-28T04:36:19.147Z,2.50
2018-06-28T04:38:47.448Z,2.77
2018-06-28T04:41:15.781Z,3.00
2018-06-28T04:43:44.761Z,2.63
2018-06-28T04:46:13.814Z,3.00
2018-06-28T04:48:42.285Z,3.00
2018-06-28T04:51:10.840Z,4.37
2018-06-28T04:53:39.348Z,2.87
2018-06-28T04:56:08.049Z,3.10
2018-06-28T04:58:36.941Z,3.17
2018-06-28T05:01:05.397Z,3.27
2018-06-28T05:03:34.392Z,2.83
2018-06-28T05:06:03.317Z,3.60
2018-06-28T05:08:31.741Z,3.13
2018-06-28T05:11:00.944Z,3.93
2018-06-28T05:13:29.328Z,5.70
2018-06-28T05:15:58.016Z,2.97
2018-06-28T05:18:26.415Z,2.70
2018-06-28T05:20:54.886Z,2.87
2018-06-28T05:23:23.839Z,2.70
2018-06-28T05:25:52.265Z,3.03
2018-06-28T05:28:20.952Z,2.77
2018-06-28T05:30:49.616Z,2.47
2018-06-28T05:33:18.324Z,3.17
2018-06-28T05:35:47.037Z,2.70
2018-06-28T05:38:15.672Z,8.00
2018-06-28T05:40:44.831Z,2.77
2018-06-28T05:43:13.441Z,3.27
2018-06-28T05:45:42.065Z,3.10
2018-06-28T05:48:10.736Z,2.97
2018-06-28T05:50:39.369Z,2.47
2018-06-28T05:53:08.616Z,3.03
2018-06-28T05:55:37.284Z,2.87
2018-06-28T05:58:05.828Z,4.87
2018-06-28T06:00:34.733Z,2.70
2018-06-28T06:03:03.679Z,3.00
2018-06-28T06:05:32.304Z,3.00
2018-06-28T06:08:01.137Z,3.63
2018-06-28T06:10:30.339Z,3.10
2018-06-28T06:12:59.078Z,2.70
2018-06-28T06:15:29.118Z,3.03
2018-06-28T06:17:58.659Z,3.10
2018-06-28T06:20:27.592Z,3.03
2018-06-28T06:22:56.164Z,3.50
2018-06-28T06:25:25.017Z,3.43
2018-06-28T06:27:53.831Z,3.60
2018-06-28T06:30:22.788Z,4.43
2018-06-28T06:32:51.414Z,3.50
2018-06-28T06:35:20.101Z,4.10
2018-06-28T06:37:48.765Z,3.03
2018-06-28T06:40:17.368Z,3.20
2018-06-28T06:42:45.869Z,3.37
2018-06-28T06:45:14.549Z,2.93
2018-06-28T06:47:43.252Z,2.77
2018-06-28T06:50:11.936Z,2.73
2018-06-28T06:52:40.836Z,2.70
2018-06-28T06:55:09.469Z,3.93
2018-06-28T06:57:37.895Z,2.80
2018-06-28T07:00:06.964Z,3.73
2018-06-28T07:02:35.657Z,5.07
2018-06-28T07:05:04.338Z,5.27
2018-06-28T07:07:33.256Z,4.13
2018-06-28T07:10:01.959Z,5.00
2018-06-28T07:12:31.207Z,4.23
2018-06-28T07:15:00.012Z,4.47
2018-06-28T07:17:28.916Z,4.53
2018-06-28T07:19:57.360Z,3.10
2018-06-28T07:22:26.252Z,3.37
2018-06-28T07:24:54.753Z,4.67
2018-06-28T07:27:23.377Z,6.10
2018-06-28T07:29:52.109Z,3.80
2018-06-28T07:32:20.615Z,4.03
2018-06-28T07:34:49.172Z,4.20
2018-06-28T07:37:18.083Z,3.47
2018-06-28T07:39:46.523Z,4.20
2018-06-28T07:42:15.128Z,4.23
2018-06-28T07:44:43.701Z,3.33
2018-06-28T07:47:12.345Z,4.57
2018-06-28T07:49:41.220Z,2.50
2018-06-28T07:52:09.900Z,4.30
2018-06-28T07:54:38.663Z,2.70
2018-06-28T07:57:07.351Z,3.63
2018-06-28T07:59:36.128Z,3.90
2018-06-28T08:02:04.643Z,3.80
2018-06-28T08:04:33.049Z,2.47
2018-06-28T08:07:01.404Z,5.27
2018-06-28T08:09:30.064Z,2.60
2018-06-28T08:11:58.490Z,4.83
2018-06-28T08:14:27.205Z,3.80
2018-06-28T08:16:55.633Z,2.63
2018-06-28T08:19:24.300Z,2.80
2018-06-28T08:21:52.953Z,2.73
2018-06-28T08:24:21.937Z,4.07
2018-06-28T08:26:50.911Z,2.70
2018-06-28T08:29:19.276Z,3.13
2018-06-28T08:31:47.685Z,2.63
2018-06-28T08:34:16.624Z,3.23
2018-06-28T08:36:45.373Z,2.50
2018-06-28T08:39:14.560Z,2.83
2018-06-28T08:41:43.378Z,2.77
2018-06-28T08:44:11.993Z,2.40
2018-06-28T08:46:40.363Z,4.70
2018-06-28T08:49:09.399Z,3.00
2018-06-28T08:51:37.776Z,3.13
2018-06-28T08:54:06.130Z,3.33
2018-06-28T08:56:34.528Z,2.57
2018-06-28T08:59:02.876Z,3.43
2018-06-28T09:01:31.367Z,2.50
2018-06-28T09:03:59.981Z,2.73
2018-06-28T09:06:28.452Z,2.50
2018-06-28T09:08:57.056Z,3.20
2018-06-28T09:11:26.033Z,3.40
2018-06-28T09:13:54.489Z,2.90
2018-06-28T09:16:23.200Z,3.40
2018-06-28T09:18:51.797Z,3.90
2018-06-28T09:21:20.269Z,2.90
2018-06-28T09:23:48.924Z,2.73
2018-06-28T09:26:17.940Z,2.40
2018-06-28T09:28:46.681Z,2.90
2018-06-28T09:31:15.291Z,2.67
2018-06-28T09:33:43.980Z,2.63
2018-06-28T09:36:12.945Z,2.50
2018-06-28T09:38:41.589Z,2.77
2018-06-28T09:41:10.063Z,2.70
2018-06-28T09:43:38.675Z,2.80
2018-06-28T09:46:07.653Z,2.53
2018-06-28T09:48:36.321Z,2.67
2018-06-28T09:51:04.719Z,2.50
2018-06-28T09:53:33.166Z,2.50
2018-06-28T09:56:01.878Z,2.53
2018-06-28T09:58:30.789Z,2.40
2018-06-28T10:00:59.840Z,3.97
2018-06-28T10:03:28.495Z,3.47
2018-06-28T10:05:57.212Z,2.80
2018-06-28T10:08:26.132Z,5.20
2018-06-28T10:10:54.641Z,2.70
2018-06-28T10:13:23.280Z,2.57
2018-06-28T10:15:52.597Z,3.40
2018-06-28T10:18:21.656Z,2.43
2018-06-28T10:20:50.181Z,2.70
2018-06-28T10:23:18.556Z,2.70
2018-06-28T10:25:47.016Z,2.87
2018-06-28T10:28:15.988Z,2.57
2018-06-28T10:30:44.957Z,2.70
2018-06-28T10:33:13.645Z,2.60
2018-06-28T10:35:42.610Z,2.83
2018-06-28T10:38:11.261Z,2.40
2018-06-28T10:40:39.754Z,2.93
2018-06-28T10:43:08.369Z,3.20
2018-06-28T10:45:37.052Z,2.43
2018-06-28T10:48:05.765Z,2.53
2018-06-28T10:50:34.243Z,3.17
2018-06-28T10:53:02.808Z,2.40
2018-06-28T10:55:31.584Z,3.37
2018-06-28T10:58:00.565Z,2.60
2018-06-28T11:00:29.189Z,2.53
2018-06-28T11:02:57.931Z,2.50
2018-06-28T11:05:26.560Z,3.30
2018-06-28T11:07:55.242Z,2.40
2018-06-28T11:10:23.692Z,2.50
2018-06-28T11:12:52.396Z,3.00
2018-06-28T11:15:21.280Z,2.70
2018-06-28T11:17:49.785Z,2.70
2018-06-28T11:20:18.431Z,2.30
2018-06-28T11:22:47.420Z,2.63
2018-06-28T11:25:16.113Z,2.90
2018-06-28T11:27:45.124Z,3.30
2018-06-28T11:30:13.708Z,2.80
2018-06-28T11:32:42.087Z,2.40
2018-06-28T11:35:10.477Z,3.03
2018-06-28T11:37:39.170Z,2.50
2018-06-28T11:40:07.852Z,3.07
2018-06-28T11:42:36.232Z,2.43
2018-06-28T11:45:04.705Z,2.40
2018-06-28T11:47:33.295Z,2.47
2018-06-28T11:50:02.000Z,2.60
2018-06-28T11:52:30.961Z,2.40
2018-06-28T11:55:00.896Z,2.50
2018-06-28T11:57:29.643Z,2.60
2018-06-28T11:59:58.332Z,3.30
2018-06-28T12:02:27.110Z,2.50
2018-06-28T12:04:55.973Z,2.40
2018-06-28T12:07:24.932Z,2.27
2018-06-28T12:09:53.390Z,2.60
2018-06-28T12:12:22.105Z,2.70
2018-06-28T12:14:50.673Z,2.30
2018-06-28T12:17:19.367Z,2.23
2018-06-28T12:19:47.880Z,2.27
2018-06-28T12:22:16.474Z,3.27
2018-06-28T12:24:45.469Z,2.27
2018-06-28T12:27:14.708Z,2.50
2018-06-28T12:29:43.725Z,2.33
2018-06-28T12:32:12.321Z,2.50
2018-06-28T12:34:41.369Z,2.50
2018-06-28T12:37:10.192Z,2.37
2018-06-28T12:39:38.841Z,2.47
2018-06-28T12:42:07.465Z,2.20
2018-06-28T12:44:36.028Z,2.60
2018-06-28T12:47:34.949Z,2.33
2018-06-28T12:50:03.664Z,2.10
2018-06-28T12:52:37.540Z,2.40
2018-06-28T12:57:13.133Z,2.50
2018-06-28T12:59:41.786Z,3.07
2018-06-28T13:02:10.168Z,2.73
2018-06-28T13:04:38.920Z,2.77
2018-06-28T13:07:07.591Z,2.47
2018-06-28T13:09:35.996Z,2.70
2018-06-28T13:12:04.889Z,2.63
2018-06-28T13:14:33.305Z,2.60
2018-06-28T13:17:01.656Z,2.53
2018-06-28T13:19:30.131Z,2.80
2018-06-28T13:21:58.784Z,2.73
2018-06-28T13:24:27.408Z,2.80
2018-06-28T13:26:57.118Z,2.63
2018-06-28T13:29:25.417Z,2.70
2018-06-28T13:31:53.680Z,3.00
2018-06-28T13:34:22.162Z,3.87
2018-06-28T13:36:50.865Z,4.30
2018-06-28T13:39:19.592Z,3.63
2018-06-28T13:41:48.439Z,3.53
2018-06-28T13:44:17.021Z,4.83
2018-06-28T13:46:45.716Z,3.97
2018-06-28T13:49:14.421Z,4.17
2018-06-28T13:51:42.708Z,4.47
2018-06-28T13:54:11.653Z,4.20
2018-06-28T13:56:39.924Z,4.50
2018-06-28T13:59:08.444Z,4.30
2018-06-28T14:01:37.416Z,4.33
2018-06-28T14:04:06.107Z,4.47
2018-06-28T14:06:34.496Z,4.83
2018-06-28T14:09:02.896Z,4.93
2018-06-28T14:11:31.528Z,5.00
2018-06-28T14:13:59.936Z,4.70
2018-06-28T14:16:28.298Z,4.30
2018-06-28T14:18:56.560Z,4.13
2018-06-28T14:21:25.044Z,4.53
2018-06-28T14:23:53.408Z,4.93
2018-06-28T14:26:21.928Z,4.80
2018-06-28T14:28:50.219Z,4.03
2018-06-28T14:31:18.467Z,4.00
2018-06-28T14:33:46.778Z,5.33
2018-06-28T14:36:15.429Z,4.30
2018-06-28T14:38:43.740Z,4.20
2018-06-28T14:41:12.205Z,4.80
2018-06-28T14:43:40.584Z,4.40
2018-06-28T14:46:08.845Z,4.97
2018-06-28T14:48:38.187Z,4.87
2018-06-28T14:51:07.129Z,5.03
2018-06-28T14:53:35.559Z,4.33
2018-06-28T14:56:04.222Z,4.63
2018-06-28T14:58:32.880Z,4.60
2018-06-28T15:01:01.273Z,4.40
2018-06-28T15:03:29.548Z,4.50
2018-06-28T15:05:58.128Z,3.90
2018-06-28T15:08:26.391Z,4.33
2018-06-28T15:10:54.641Z,4.20
2018-06-28T15:13:22.911Z,4.50
2018-06-28T15:15:51.174Z,4.40
2018-06-28T15:18:19.441Z,5.67
2018-06-28T15:20:47.748Z,4.43
2018-06-28T15:23:16.020Z,4.50
2018-06-28T15:25:44.472Z,4.43
2018-06-28T15:28:12.937Z,4.30
2018-06-28T15:30:41.259Z,4.27
2018-06-28T15:33:09.683Z,4.60
2018-06-28T15:35:37.912Z,4.63
2018-06-28T15:38:06.652Z,5.00
2018-06-28T15:40:34.912Z,4.10
2018-06-28T15:43:03.192Z,4.50
2018-06-28T15:45:31.764Z,4.20
2018-06-28T15:48:00.206Z,4.17
2018-06-28T15:50:28.580Z,4.30
2018-06-28T15:52:56.869Z,4.47
2018-06-28T15:55:25.783Z,4.33
2018-06-28T15:57:54.213Z,4.60
2018-06-28T16:00:22.683Z,3.87
2018-06-28T16:02:51.018Z,4.23
2018-06-28T16:05:19.813Z,4.10
2018-06-28T16:07:48.735Z,4.50
2018-06-28T16:10:17.246Z,4.40
2018-06-28T16:12:45.960Z,4.23
2018-06-28T16:15:14.597Z,4.57
2018-06-28T16:17:43.241Z,4.10
2018-06-28T16:20:12.465Z,4.23
2018-06-28T16:22:41.153Z,5.23
2018-06-28T16:25:10.194Z,4.40
2018-06-28T16:27:38.571Z,6.87
2018-06-28T16:30:07.261Z,4.80
2018-06-28T16:32:35.635Z,5.00
2018-06-28T16:35:04.636Z,4.20
2018-06-28T16:37:33.941Z,6.40
2018-06-28T16:40:02.729Z,6.10
2018-06-28T16:42:31.708Z,5.33
2018-06-28T16:45:00.812Z,6.03
2018-06-28T16:47:29.404Z,4.80
2018-06-28T16:49:58.076Z,5.27
2018-06-28T16:52:26.761Z,5.07
2018-06-28T16:54:55.665Z,5.30
2018-06-28T16:57:24.069Z,4.50
2018-06-28T16:59:52.773Z,5.17
2018-06-28T17:02:21.532Z,5.77
2018-06-28T17:04:50.093Z,6.03
2018-06-28T17:07:18.573Z,6.20
2018-06-28T17:09:46.958Z,5.80
2018-06-28T17:12:15.641Z,5.73
2018-06-28T17:14:44.544Z,5.43
2018-06-28T17:17:12.893Z,5.40
2018-06-28T17:19:41.320Z,5.47
2018-06-28T17:22:09.724Z,6.07
2018-06-28T17:24:38.459Z,5.20
2018-06-28T17:27:07.505Z,5.33
2018-06-28T17:29:36.885Z,5.05
2018-06-28T17:32:05.844Z,5.13
2018-06-28T17:34:34.431Z,4.90
2018-06-28T17:37:03.149Z,5.47
2018-06-28T17:39:31.693Z,4.87
2018-06-28T17:42:00.400Z,5.10
2018-06-28T17:44:28.784Z,4.77
2018-06-28T17:46:57.256Z,4.43
2018-06-28T17:49:26.155Z,5.10
2018-06-28T17:51:55.148Z,5.23
2018-06-28T17:54:23.927Z,4.70
2018-06-28T17:56:52.708Z,4.40
2018-06-28T17:59:21.303Z,4.03
2018-06-28T18:01:50.190Z,5.87
2018-06-28T18:04:18.890Z,4.20
2018-06-28T18:06:47.447Z,5.30
2018-06-28T18:09:16.288Z,4.67
2018-06-28T18:12:15.638Z,6.03
2018-06-28T18:14:44.219Z,4.83
2018-06-28T18:17:12.837Z,6.10
2018-06-28T18:19:41.744Z,7.93
2018-06-28T18:22:10.204Z,4.47
2018-06-28T18:24:39.142Z,5.43
2018-06-28T18:27:07.872Z,6.00
2018-06-28T18:29:36.572Z,5.67
2018-06-28T18:32:05.704Z,4.30
2018-06-28T18:34:35.062Z,5.97
2018-06-28T18:37:03.565Z,5.40
2018-06-28T18:39:32.433Z,4.10
2018-06-28T18:42:01.732Z,5.23
2018-06-28T18:44:30.743Z,4.83
2018-06-28T18:46:59.640Z,4.70
2018-06-28T18:49:28.120Z,4.17
2018-06-28T18:51:56.580Z,5.43
2018-06-28T18:54:25.582Z,5.40
2018-06-28T18:56:54.208Z,4.40
2018-06-28T18:59:22.837Z,7.57
2018-06-28T19:01:51.329Z,5.10
2018-06-28T19:04:20.226Z,5.00
2018-06-28T19:06:48.926Z,5.60
2018-06-28T19:09:17.402Z,4.47
2018-06-28T19:11:46.241Z,7.13
2018-06-28T19:14:20.427Z,4.87
2018-06-28T19:16:55.012Z,5.13
2018-06-28T19:19:23.703Z,5.93
2018-06-28T19:21:57.384Z,4.60
2018-06-28T19:24:25.825Z,4.80
2018-06-28T19:26:55.025Z,6.10
2018-06-28T19:29:29.260Z,5.27
2018-06-28T19:32:02.953Z,5.33
2018-06-28T19:34:31.844Z,4.77
2018-06-28T19:37:00.652Z,6.30
2018-06-28T19:39:34.564Z,5.80
2018-06-28T19:42:08.596Z,5.40
2018-06-28T19:44:37.006Z,5.20
2018-06-28T19:47:05.410Z,5.17
2018-06-28T19:49:39.272Z,5.40
2018-06-28T19:52:13.244Z,6.07
2018-06-28T19:54:42.598Z,5.33
2018-06-28T19:57:11.011Z,5.53
2018-06-28T19:59:44.796Z,5.20
2018-06-28T20:04:25.266Z,6.83
2018-06-28T20:06:53.933Z,5.30
2018-06-28T20:09:22.652Z,5.10
2018-06-28T20:11:51.122Z,5.30
2018-06-28T20:14:25.135Z,7.73
2018-06-28T20:16:58.868Z,7.43
2018-06-28T20:19:32.652Z,6.67
2018-06-28T20:22:01.481Z,6.93
2018-06-28T20:24:30.301Z,6.03
2018-06-28T20:27:04.121Z,5.43
2018-06-28T20:29:38.336Z,6.60
2018-06-28T20:32:12.348Z,7.27
2018-06-28T20:34:41.139Z,7.40
2018-06-28T20:37:09.856Z,8.50
2018-06-28T20:39:38.545Z,6.37
2018-06-28T20:42:07.301Z,6.13
2018-06-28T20:44:35.881Z,6.87
2018-06-28T20:47:04.258Z,8.80
2018-06-28T20:49:32.638Z,6.30
2018-06-28T20:52:01.445Z,5.20
2018-06-28T20:54:30.313Z,8.70
2018-06-28T20:56:59.028Z,6.77
2018-06-28T20:59:27.716Z,7.17
2018-06-28T21:01:56.713Z,7.70
2018-06-28T21:04:25.513Z,7.23
2018-06-28T21:06:54.360Z,6.43
2018-06-28T21:09:23.076Z,6.70
2018-06-28T21:11:51.553Z,8.23
2018-06-28T21:14:20.448Z,7.00
2018-06-28T21:16:48.839Z,7.40
2018-06-28T21:19:17.500Z,5.90
2018-06-28T21:21:45.996Z,5.93
2018-06-28T21:24:14.560Z,5.80
2018-06-28T21:26:42.989Z,7.10
2018-06-28T21:29:11.722Z,5.50
2018-06-28T21:31:40.433Z,5.70
2018-06-28T21:34:09.096Z,8.30
2018-06-28T21:36:38.037Z,5.50
2018-06-28T21:39:07.916Z,6.40
2018-06-28T21:41:36.421Z,7.20
2018-06-28T21:44:05.312Z,6.77
2018-06-28T21:46:33.816Z,6.47
2018-06-28T21:49:02.710Z,8.87
2018-06-28T21:51:31.368Z,5.83
2018-06-28T21:53:59.768Z,8.67
2018-06-28T21:56:28.716Z,6.17
2018-06-28T21:58:57.424Z,6.47
2018-06-28T22:01:26.084Z,6.30
2018-06-28T22:03:55.116Z,9.43
2018-06-28T22:06:23.761Z,6.50
2018-06-28T22:08:52.186Z,7.37
2018-06-28T22:11:21.245Z,9.47
2018-06-28T22:13:50.480Z,7.07
2018-06-28T22:16:18.824Z,7.00
2018-06-28T22:18:47.537Z,7.47
2018-06-28T22:21:16.229Z,6.70
2018-06-28T22:23:44.948Z,6.47
2018-06-28T22:26:13.997Z,6.87
2018-06-28T22:28:43.201Z,6.47
2018-06-28T22:31:11.884Z,6.00
2018-06-28T22:33:40.548Z,8.57
2018-06-28T22:36:09.264Z,9.57
2018-06-28T22:38:37.800Z,5.60
2018-06-28T22:41:06.639Z,6.47
2018-06-28T22:43:35.053Z,6.67
2018-06-28T22:46:04.029Z,6.73
2018-06-28T22:48:32.993Z,6.10
2018-06-28T22:51:01.512Z,6.33
2018-06-28T22:53:30.372Z,6.47
2018-06-28T22:55:58.781Z,7.23
2018-06-28T22:58:27.720Z,6.10
2018-06-28T23:00:56.200Z,5.70
2018-06-28T23:03:25.148Z,6.27
2018-06-28T23:05:53.513Z,5.73
2018-06-28T23:08:22.048Z,6.03
2018-06-28T23:10:50.846Z,5.63
2018-06-28T23:13:19.516Z,5.53
2018-06-28T23:15:48.081Z,5.97
2018-06-28T23:18:16.967Z,6.40
2018-06-28T23:20:45.620Z,6.10
2018-06-28T23:23:14.692Z,8.40
2018-06-28T23:25:43.632Z,6.07
2018-06-28T23:28:12.280Z,5.40
2018-06-28T23:30:40.676Z,5.97
2018-06-28T23:33:09.364Z,6.27
2018-06-28T23:35:37.715Z,6.20
2018-06-28T23:38:06.531Z,5.60
2018-06-28T23:40:35.092Z,5.93
2018-06-28T23:43:03.645Z,6.33
2018-06-28T23:45:32.284Z,7.50
2018-06-28T23:48:01.456Z,6.13
2018-06-28T23:50:30.199Z,6.40
2018-06-28T23:52:59.467Z,6.73
2018-06-28T23:55:27.924Z,6.33
2018-06-28T23:57:56.512Z,6.60
